FIN8LP EGLL-EFHK
Flight info
| Callsign | FIN8LP |
|---|---|
| Flight time | 2h 10m |
| Altitude | 41000 |
| Route | BPK Q295 MATCH P144 SAMHO DCT LARGA DCT SOPTO DCT RIRIP Y364 LAKUT |
| Aircraft | A359/H-SDE2E3GHIJ3J4J5LM1ORWXY/LB1D1 |
Departure
| Time | 2026-05-07 16:35 |
|---|---|
| Airport | London Heathrow Airport (EGLL) |
Arrival
| Time | 2026-05-07 18:45 |
|---|---|
| Airport | Helsinki Vantaa Airport (EFHK) |
| Time | Latitude | Longitude | Altitude | Speed | Heading |
|---|---|---|---|---|---|
| 2026-05-07 15:47 | 51.46848 | -0.45448 | 93 ft | 0 kts | 360° |
| 2026-05-07 16:19 | 51.46836 | -0.45447 | 93 ft | 4 kts | 360° |
| 2026-05-07 16:19 | 51.46808 | -0.45447 | 93 ft | 4 kts | 359° |
| 2026-05-07 16:20 | 51.46786 | -0.45447 | 93 ft | 2 kts | 359° |
| 2026-05-07 16:20 | 51.46764 | -0.45443 | 93 ft | 4 kts | 328° |
| 2026-05-07 16:20 | 51.46752 | -0.45425 | 93 ft | 4 kts | 283° |
| 2026-05-07 16:20 | 51.46749 | -0.45387 | 94 ft | 4 kts | 269° |
| 2026-05-07 16:21 | 51.46749 | -0.45343 | 94 ft | 4 kts | 270° |
| 2026-05-07 16:21 | 51.46749 | -0.45301 | 93 ft | 4 kts | 270° |
| 2026-05-07 16:21 | 51.46749 | -0.45291 | 93 ft | 0 kts | 270° |
| 2026-05-07 16:24 | 51.46749 | -0.45302 | 95 ft | 4 kts | 270° |
| 2026-05-07 16:24 | 51.46749 | -0.45383 | 93 ft | 11 kts | 270° |
| 2026-05-07 16:24 | 51.46749 | -0.45544 | 93 ft | 18 kts | 270° |
| 2026-05-07 16:25 | 51.46749 | -0.45758 | 96 ft | 20 kts | 270° |
| 2026-05-07 16:25 | 51.46748 | -0.45996 | 96 ft | 23 kts | 269° |
| 2026-05-07 16:25 | 51.46747 | -0.46260 | 97 ft | 25 kts | 269° |
| 2026-05-07 16:25 | 51.46748 | -0.46525 | 96 ft | 24 kts | 270° |
| 2026-05-07 16:26 | 51.46748 | -0.46760 | 96 ft | 22 kts | 270° |
| 2026-05-07 16:26 | 51.46748 | -0.47011 | 96 ft | 24 kts | 270° |
| 2026-05-07 16:26 | 51.46747 | -0.47236 | 96 ft | 20 kts | 270° |
| 2026-05-07 16:26 | 51.46745 | -0.47460 | 93 ft | 21 kts | 269° |
| 2026-05-07 16:27 | 51.46744 | -0.47696 | 93 ft | 20 kts | 269° |
| 2026-05-07 16:27 | 51.46744 | -0.47918 | 93 ft | 20 kts | 270° |
| 2026-05-07 16:27 | 51.46743 | -0.48157 | 93 ft | 23 kts | 269° |
| 2026-05-07 16:27 | 51.46742 | -0.48343 | 93 ft | 14 kts | 270° |
| 2026-05-07 16:28 | 51.46742 | -0.48481 | 93 ft | 10 kts | 269° |
| 2026-05-07 16:28 | 51.46741 | -0.48560 | 93 ft | 3 kts | 269° |
| 2026-05-07 16:28 | 51.46741 | -0.48564 | 93 ft | 0 kts | 269° |
| 2026-05-07 16:29 | 51.46741 | -0.48576 | 93 ft | 4 kts | 269° |
| 2026-05-07 16:29 | 51.46741 | -0.48662 | 93 ft | 11 kts | 269° |
| 2026-05-07 16:29 | 51.46704 | -0.48748 | 95 ft | 10 kts | 194° |
| 2026-05-07 16:29 | 51.46662 | -0.48751 | 95 ft | 0 kts | 180° |
| 2026-05-07 16:30 | 51.46659 | -0.48751 | 95 ft | 2 kts | 180° |
| 2026-05-07 16:30 | 51.46619 | -0.48761 | 96 ft | 8 kts | 195° |
| 2026-05-07 16:31 | 51.46610 | -0.48766 | 96 ft | 0 kts | 199° |
| 2026-05-07 16:32 | 51.46604 | -0.48769 | 96 ft | 3 kts | 199° |
| 2026-05-07 16:32 | 51.46565 | -0.48788 | 94 ft | 9 kts | 194° |
| 2026-05-07 16:33 | 51.46496 | -0.48757 | 96 ft | 12 kts | 137° |
| 2026-05-07 16:33 | 51.46477 | -0.48617 | 97 ft | 12 kts | 90° |
| 2026-05-07 16:33 | 51.46477 | -0.48581 | 97 ft | 1 kts | 90° |
| 2026-05-07 16:33 | 51.46477 | -0.48580 | 97 ft | 0 kts | 90° |
| 2026-05-07 16:34 | 51.46477 | -0.48486 | 97 ft | 33 kts | 90° |
| 2026-05-07 16:34 | 51.46479 | -0.47706 | 92 ft | 105 kts | 89° |
| 2026-05-07 16:34 | 51.46487 | -0.46210 | 108 ft | 162 kts | 91° |
| 2026-05-07 16:34 | 51.46501 | -0.44281 | 671 ft | 176 kts | 90° |
| 2026-05-07 16:35 | 51.46539 | -0.42297 | 1560 ft | 180 kts | 81° |
| 2026-05-07 16:35 | 51.47010 | -0.40429 | 2192 ft | 189 kts | 50° |
| 2026-05-07 16:35 | 51.48020 | -0.38865 | 2548 ft | 216 kts | 40° |
| 2026-05-07 16:35 | 51.49182 | -0.37133 | 3044 ft | 238 kts | 44° |
| 2026-05-07 16:36 | 51.50350 | -0.35164 | 3776 ft | 247 kts | 47° |
| 2026-05-07 16:36 | 51.51462 | -0.33007 | 4537 ft | 256 kts | 57° |
| 2026-05-07 16:36 | 51.52210 | -0.30384 | 5325 ft | 263 kts | 70° |
| 2026-05-07 16:36 | 51.52812 | -0.27583 | 5836 ft | 268 kts | 71° |
| 2026-05-07 16:37 | 51.53416 | -0.24756 | 6071 ft | 269 kts | 71° |
| 2026-05-07 16:37 | 51.54260 | -0.22110 | 6410 ft | 271 kts | 51° |
| 2026-05-07 16:37 | 51.55738 | -0.20251 | 7085 ft | 272 kts | 26° |
| 2026-05-07 16:37 | 51.57483 | -0.19016 | 8034 ft | 276 kts | 22° |
| 2026-05-07 16:38 | 51.59283 | -0.17890 | 8985 ft | 279 kts | 17° |
| 2026-05-07 16:38 | 51.61160 | -0.16989 | 9938 ft | 283 kts | 14° |
| 2026-05-07 16:38 | 51.63091 | -0.16124 | 10617 ft | 296 kts | 14° |
| 2026-05-07 16:38 | 51.65150 | -0.15196 | 11020 ft | 318 kts | 14° |
| 2026-05-07 16:39 | 51.67354 | -0.14197 | 11465 ft | 338 kts | 14° |
| 2026-05-07 16:39 | 51.69658 | -0.13138 | 12088 ft | 349 kts | 15° |
| 2026-05-07 16:39 | 51.71818 | -0.11797 | 12804 ft | 357 kts | 26° |
| 2026-05-07 16:39 | 51.73799 | -0.09350 | 13622 ft | 365 kts | 46° |
| 2026-05-07 16:40 | 51.75177 | -0.05883 | 14352 ft | 372 kts | 67° |
| 2026-05-07 16:40 | 51.75888 | -0.01853 | 15077 ft | 377 kts | 78° |
| 2026-05-07 16:40 | 51.76328 | 0.02340 | 15785 ft | 381 kts | 82° |
| 2026-05-07 16:40 | 51.76646 | 0.06602 | 16514 ft | 386 kts | 84° |
| 2026-05-07 16:41 | 51.76925 | 0.10899 | 17262 ft | 391 kts | 84° |
| 2026-05-07 16:41 | 51.77213 | 0.15294 | 18036 ft | 395 kts | 83° |
| 2026-05-07 16:41 | 51.77566 | 0.19705 | 18743 ft | 400 kts | 79° |
| 2026-05-07 16:41 | 51.78312 | 0.24060 | 19423 ft | 404 kts | 68° |
| 2026-05-07 16:42 | 51.79606 | 0.28105 | 20119 ft | 407 kts | 55° |
| 2026-05-07 16:42 | 51.81457 | 0.31568 | 20789 ft | 409 kts | 40° |
| 2026-05-07 16:42 | 51.83633 | 0.34570 | 21455 ft | 413 kts | 41° |
| 2026-05-07 16:42 | 51.85765 | 0.37729 | 22129 ft | 418 kts | 41° |
| 2026-05-07 16:43 | 51.87929 | 0.40923 | 22774 ft | 423 kts | 41° |
| 2026-05-07 16:43 | 51.90098 | 0.44171 | 23445 ft | 427 kts | 42° |
| 2026-05-07 16:43 | 51.92271 | 0.47489 | 24012 ft | 432 kts | 42° |
| 2026-05-07 16:43 | 51.94455 | 0.50882 | 24572 ft | 435 kts | 43° |
| 2026-05-07 16:44 | 51.96640 | 0.54317 | 25149 ft | 439 kts | 43° |
| 2026-05-07 16:44 | 51.98833 | 0.57786 | 25705 ft | 442 kts | 43° |
| 2026-05-07 16:44 | 52.01036 | 0.61266 | 26278 ft | 445 kts | 43° |
| 2026-05-07 16:44 | 52.03395 | 0.64469 | 26830 ft | 447 kts | 36° |
| 2026-05-07 16:45 | 52.05901 | 0.67497 | 27387 ft | 450 kts | 35° |
| 2026-05-07 16:45 | 52.08455 | 0.70471 | 27928 ft | 454 kts | 34° |
| 2026-05-07 16:45 | 52.11053 | 0.73436 | 28473 ft | 457 kts | 34° |
| 2026-05-07 16:45 | 52.13674 | 0.76409 | 28978 ft | 461 kts | 34° |
| 2026-05-07 16:46 | 52.16313 | 0.79407 | 29489 ft | 464 kts | 34° |
| 2026-05-07 16:46 | 52.18966 | 0.82432 | 29995 ft | 468 kts | 34° |
| 2026-05-07 16:46 | 52.21637 | 0.85491 | 30411 ft | 471 kts | 34° |
| 2026-05-07 16:46 | 52.24325 | 0.88581 | 30814 ft | 474 kts | 34° |
| 2026-05-07 16:47 | 52.27024 | 0.91695 | 31212 ft | 477 kts | 34° |
| 2026-05-07 16:47 | 52.29745 | 0.94840 | 31596 ft | 480 kts | 34° |
| 2026-05-07 16:47 | 52.32476 | 0.98002 | 31972 ft | 483 kts | 34° |
| 2026-05-07 16:47 | 52.35236 | 1.01201 | 32344 ft | 486 kts | 34° |
| 2026-05-07 16:48 | 52.38008 | 1.04411 | 32692 ft | 489 kts | 34° |
| 2026-05-07 16:48 | 52.40793 | 1.07650 | 33012 ft | 491 kts | 34° |
| 2026-05-07 16:48 | 52.43548 | 1.10861 | 33335 ft | 494 kts | 34° |
| 2026-05-07 16:48 | 52.46391 | 1.14181 | 33672 ft | 496 kts | 34° |
| 2026-05-07 16:49 | 52.49165 | 1.17425 | 34019 ft | 497 kts | 34° |
| 2026-05-07 16:49 | 52.51989 | 1.20732 | 34402 ft | 497 kts | 34° |
| 2026-05-07 16:49 | 52.54796 | 1.24023 | 34761 ft | 496 kts | 34° |
| 2026-05-07 16:49 | 52.57611 | 1.27329 | 35087 ft | 497 kts | 34° |
| 2026-05-07 16:50 | 52.60432 | 1.30645 | 35413 ft | 497 kts | 34° |
| 2026-05-07 16:50 | 52.63248 | 1.33961 | 35710 ft | 498 kts | 34° |
| 2026-05-07 16:50 | 52.66061 | 1.37280 | 36060 ft | 497 kts | 34° |
| 2026-05-07 16:50 | 52.68863 | 1.40592 | 36581 ft | 492 kts | 34° |
| 2026-05-07 16:51 | 52.71628 | 1.43865 | 37127 ft | 487 kts | 34° |
| 2026-05-07 16:51 | 52.74372 | 1.47119 | 37689 ft | 482 kts | 34° |
| 2026-05-07 16:51 | 52.77043 | 1.50292 | 38253 ft | 476 kts | 34° |
| 2026-05-07 16:51 | 52.79745 | 1.53506 | 38830 ft | 470 kts | 34° |
| 2026-05-07 16:52 | 52.82385 | 1.56650 | 39188 ft | 466 kts | 34° |
| 2026-05-07 16:52 | 52.85012 | 1.59783 | 39484 ft | 464 kts | 34° |
| 2026-05-07 16:52 | 52.87629 | 1.62909 | 39742 ft | 463 kts | 34° |
| 2026-05-07 16:52 | 52.90236 | 1.66027 | 39992 ft | 461 kts | 34° |
| 2026-05-07 16:53 | 52.92833 | 1.69138 | 40200 ft | 461 kts | 34° |
| 2026-05-07 16:53 | 52.95435 | 1.72260 | 40396 ft | 460 kts | 34° |
| 2026-05-07 16:53 | 52.98006 | 1.75351 | 40794 ft | 454 kts | 34° |
| 2026-05-07 16:53 | 53.00557 | 1.78422 | 41056 ft | 452 kts | 34° |
| 2026-05-07 16:54 | 53.03110 | 1.81499 | 41099 ft | 455 kts | 34° |
| 2026-05-07 16:54 | 53.08237 | 1.87689 | 41102 ft | 463 kts | 34° |
| 2026-05-07 16:55 | 53.13491 | 1.94055 | 41102 ft | 471 kts | 35° |
| 2026-05-07 16:55 | 53.18839 | 2.00555 | 41102 ft | 480 kts | 35° |
| 2026-05-07 16:56 | 53.24280 | 2.07189 | 41101 ft | 489 kts | 35° |
| 2026-05-07 16:56 | 53.32741 | 2.17097 | 41103 ft | 500 kts | 32° |
| 2026-05-07 16:57 | 53.38537 | 2.23580 | 41107 ft | 507 kts | 32° |
| 2026-05-07 16:57 | 53.44400 | 2.30211 | 41107 ft | 508 kts | 33° |
| 2026-05-07 16:58 | 53.50232 | 2.36913 | 41108 ft | 508 kts | 34° |
| 2026-05-07 16:58 | 53.55906 | 2.44007 | 41109 ft | 508 kts | 36° |
| 2026-05-07 16:59 | 53.60608 | 2.50070 | 41117 ft | 508 kts | 36° |
| 2026-05-07 16:59 | 53.66210 | 2.57247 | 41114 ft | 509 kts | 36° |
| 2026-05-07 17:00 | 53.71860 | 2.64434 | 41115 ft | 509 kts | 36° |
| 2026-05-07 17:00 | 53.77533 | 2.71653 | 41115 ft | 509 kts | 36° |
| 2026-05-07 17:01 | 53.83195 | 2.78883 | 41115 ft | 509 kts | 36° |
| 2026-05-07 17:01 | 53.88852 | 2.86135 | 41114 ft | 510 kts | 36° |
| 2026-05-07 17:02 | 53.94514 | 2.93419 | 41115 ft | 510 kts | 36° |
| 2026-05-07 17:02 | 54.00165 | 3.00716 | 41111 ft | 510 kts | 36° |
| 2026-05-07 17:03 | 54.05775 | 3.07984 | 41116 ft | 511 kts | 36° |
| 2026-05-07 17:03 | 54.11427 | 3.15334 | 41112 ft | 511 kts | 36° |
| 2026-05-07 17:04 | 54.17076 | 3.22704 | 41116 ft | 511 kts | 36° |
| 2026-05-07 17:04 | 54.22725 | 3.30103 | 41114 ft | 511 kts | 36° |
| 2026-05-07 17:05 | 54.28370 | 3.37520 | 41105 ft | 511 kts | 36° |
| 2026-05-07 17:05 | 54.34019 | 3.44970 | 41109 ft | 512 kts | 36° |
| 2026-05-07 17:06 | 54.39656 | 3.52429 | 41121 ft | 512 kts | 36° |
| 2026-05-07 17:06 | 54.45293 | 3.59918 | 41127 ft | 512 kts | 36° |
| 2026-05-07 17:07 | 54.50893 | 3.67381 | 41109 ft | 512 kts | 36° |
| 2026-05-07 17:07 | 54.56520 | 3.74908 | 41110 ft | 512 kts | 36° |
| 2026-05-07 17:08 | 54.62142 | 3.82457 | 41109 ft | 512 kts | 36° |
| 2026-05-07 17:08 | 54.67764 | 3.90031 | 41123 ft | 512 kts | 37° |
| 2026-05-07 17:09 | 54.73377 | 3.97621 | 41112 ft | 512 kts | 37° |
| 2026-05-07 17:09 | 54.78988 | 4.05236 | 41115 ft | 512 kts | 37° |
| 2026-05-07 17:10 | 54.84592 | 4.12881 | 41117 ft | 513 kts | 37° |
| 2026-05-07 17:10 | 54.89697 | 4.21535 | 41120 ft | 514 kts | 45° |
| 2026-05-07 17:11 | 54.94567 | 4.30669 | 41118 ft | 514 kts | 46° |
| 2026-05-07 17:11 | 54.99384 | 4.39870 | 41119 ft | 514 kts | 46° |
| 2026-05-07 17:12 | 55.04180 | 4.49049 | 41130 ft | 514 kts | 46° |
| 2026-05-07 17:12 | 55.09002 | 4.58282 | 41121 ft | 515 kts | 46° |
| 2026-05-07 17:13 | 55.13821 | 4.67536 | 41124 ft | 514 kts | 46° |
| 2026-05-07 17:13 | 55.18631 | 4.76808 | 41125 ft | 514 kts | 47° |
| 2026-05-07 17:14 | 55.23440 | 4.86114 | 41121 ft | 515 kts | 47° |
| 2026-05-07 17:14 | 55.28238 | 4.95436 | 41120 ft | 515 kts | 47° |
| 2026-05-07 17:15 | 55.32719 | 5.05245 | 41122 ft | 515 kts | 53° |
| 2026-05-07 17:15 | 55.36950 | 5.15423 | 41124 ft | 516 kts | 53° |
| 2026-05-07 17:16 | 55.41139 | 5.25662 | 41124 ft | 516 kts | 53° |
| 2026-05-07 17:16 | 55.45293 | 5.35865 | 41123 ft | 516 kts | 53° |
| 2026-05-07 17:17 | 55.49472 | 5.46156 | 41122 ft | 516 kts | 53° |
| 2026-05-07 17:17 | 55.53643 | 5.56462 | 41137 ft | 516 kts | 54° |
| 2026-05-07 17:18 | 55.57804 | 5.66788 | 41120 ft | 516 kts | 54° |
| 2026-05-07 17:18 | 55.61954 | 5.77129 | 41117 ft | 516 kts | 54° |
| 2026-05-07 17:19 | 55.66098 | 5.87497 | 41128 ft | 516 kts | 54° |
| 2026-05-07 17:19 | 55.70234 | 5.97892 | 41136 ft | 516 kts | 54° |
| 2026-05-07 17:20 | 55.74340 | 6.08253 | 41118 ft | 516 kts | 54° |
| 2026-05-07 17:20 | 55.78457 | 6.18690 | 41119 ft | 516 kts | 54° |
| 2026-05-07 17:21 | 55.82571 | 6.29160 | 41132 ft | 516 kts | 54° |
| 2026-05-07 17:21 | 55.86674 | 6.39647 | 41131 ft | 516 kts | 54° |
| 2026-05-07 17:22 | 55.90769 | 6.50161 | 41133 ft | 516 kts | 54° |
| 2026-05-07 17:22 | 55.94854 | 6.60693 | 41117 ft | 516 kts | 54° |
| 2026-05-07 17:23 | 55.98932 | 6.71253 | 41127 ft | 516 kts | 55° |
| 2026-05-07 17:23 | 56.03005 | 6.81845 | 41129 ft | 516 kts | 55° |
| 2026-05-07 17:24 | 56.07033 | 6.92368 | 41131 ft | 516 kts | 55° |
| 2026-05-07 17:24 | 56.11085 | 7.02997 | 40989 ft | 517 kts | 55° |
| 2026-05-07 17:25 | 56.13097 | 7.08292 | 41100 ft | 512 kts | 55° |
| 2026-05-07 17:25 | 56.15087 | 7.13542 | 41125 ft | 508 kts | 55° |
| 2026-05-07 17:25 | 56.19043 | 7.24010 | 41128 ft | 505 kts | 55° |
| 2026-05-07 17:26 | 56.22978 | 7.34467 | 41125 ft | 505 kts | 55° |
| 2026-05-07 17:26 | 56.26908 | 7.44956 | 41124 ft | 505 kts | 56° |
| 2026-05-07 17:27 | 56.30798 | 7.55383 | 41125 ft | 505 kts | 56° |
| 2026-05-07 17:27 | 56.34711 | 7.65917 | 41125 ft | 505 kts | 56° |
| 2026-05-07 17:28 | 56.38615 | 7.76472 | 41123 ft | 506 kts | 56° |
| 2026-05-07 17:28 | 56.42511 | 7.87054 | 41123 ft | 506 kts | 56° |
| 2026-05-07 17:29 | 56.46396 | 7.97648 | 41127 ft | 506 kts | 56° |
| 2026-05-07 17:29 | 56.50273 | 8.08268 | 41123 ft | 506 kts | 56° |
| 2026-05-07 17:30 | 56.54144 | 8.18920 | 41122 ft | 506 kts | 56° |
| 2026-05-07 17:30 | 56.58002 | 8.29581 | 41120 ft | 506 kts | 56° |
| 2026-05-07 17:31 | 56.61860 | 8.40291 | 41114 ft | 506 kts | 56° |
| 2026-05-07 17:31 | 56.65681 | 8.50943 | 41118 ft | 507 kts | 56° |
| 2026-05-07 17:32 | 56.69518 | 8.61690 | 41115 ft | 507 kts | 56° |
| 2026-05-07 17:32 | 56.72732 | 8.70725 | 41115 ft | 507 kts | 56° |
| 2026-05-07 17:33 | 56.77175 | 8.83273 | 41116 ft | 507 kts | 56° |
| 2026-05-07 17:33 | 56.80985 | 8.94089 | 41111 ft | 507 kts | 57° |
| 2026-05-07 17:34 | 56.84792 | 9.04942 | 41110 ft | 507 kts | 57° |
| 2026-05-07 17:34 | 56.88591 | 9.15824 | 41111 ft | 507 kts | 57° |
| 2026-05-07 17:35 | 56.92382 | 9.26730 | 41112 ft | 508 kts | 57° |
| 2026-05-07 17:35 | 56.96138 | 9.37583 | 41114 ft | 508 kts | 57° |
| 2026-05-07 17:36 | 56.99918 | 9.48557 | 41121 ft | 508 kts | 57° |
| 2026-05-07 17:36 | 57.03688 | 9.59552 | 41125 ft | 508 kts | 57° |
| 2026-05-07 17:37 | 57.07424 | 9.70498 | 41131 ft | 508 kts | 57° |
| 2026-05-07 17:37 | 57.11175 | 9.81539 | 41130 ft | 509 kts | 57° |
| 2026-05-07 17:38 | 57.14917 | 9.92605 | 41131 ft | 509 kts | 57° |
| 2026-05-07 17:38 | 57.18651 | 10.03696 | 41129 ft | 509 kts | 57° |
| 2026-05-07 17:39 | 57.22380 | 10.14824 | 41129 ft | 509 kts | 57° |
| 2026-05-07 17:39 | 57.26099 | 10.25975 | 41125 ft | 510 kts | 57° |
| 2026-05-07 17:40 | 57.29787 | 10.37088 | 41130 ft | 510 kts | 58° |
| 2026-05-07 17:40 | 57.33492 | 10.48302 | 41129 ft | 510 kts | 58° |
| 2026-05-07 17:41 | 57.37189 | 10.59543 | 41125 ft | 510 kts | 58° |
| 2026-05-07 17:41 | 57.40873 | 10.70800 | 41129 ft | 511 kts | 58° |
| 2026-05-07 17:42 | 57.44547 | 10.82077 | 41129 ft | 511 kts | 58° |
| 2026-05-07 17:42 | 57.48214 | 10.93388 | 41132 ft | 511 kts | 58° |
| 2026-05-07 17:43 | 57.51873 | 11.04730 | 41128 ft | 511 kts | 58° |
| 2026-05-07 17:43 | 57.55498 | 11.16019 | 41129 ft | 511 kts | 58° |
| 2026-05-07 17:44 | 57.59161 | 11.27480 | 41126 ft | 512 kts | 58° |
| 2026-05-07 17:44 | 57.62181 | 11.36970 | 41127 ft | 512 kts | 58° |
| 2026-05-07 17:45 | 57.66394 | 11.50279 | 41128 ft | 512 kts | 58° |
| 2026-05-07 17:45 | 57.69424 | 11.59895 | 41129 ft | 512 kts | 58° |
| 2026-05-07 17:46 | 57.73033 | 11.71400 | 41129 ft | 513 kts | 58° |
| 2026-05-07 17:46 | 57.76626 | 11.82910 | 41132 ft | 513 kts | 59° |
| 2026-05-07 17:47 | 57.80220 | 11.94480 | 41132 ft | 513 kts | 59° |
| 2026-05-07 17:47 | 57.83798 | 12.06052 | 41130 ft | 513 kts | 59° |
| 2026-05-07 17:48 | 57.87363 | 12.17645 | 41122 ft | 514 kts | 59° |
| 2026-05-07 17:48 | 57.90912 | 12.29240 | 41106 ft | 514 kts | 59° |
| 2026-05-07 17:49 | 57.94482 | 12.40963 | 41107 ft | 514 kts | 59° |
| 2026-05-07 17:49 | 57.98009 | 12.52603 | 41102 ft | 514 kts | 59° |
| 2026-05-07 17:50 | 58.01558 | 12.64372 | 41105 ft | 514 kts | 59° |
| 2026-05-07 17:50 | 58.05048 | 12.76008 | 41102 ft | 515 kts | 59° |
| 2026-05-07 17:51 | 58.08581 | 12.87843 | 41101 ft | 515 kts | 59° |
| 2026-05-07 17:51 | 58.12097 | 12.99681 | 41101 ft | 515 kts | 59° |
| 2026-05-07 17:52 | 58.15607 | 13.11561 | 41103 ft | 516 kts | 60° |
| 2026-05-07 17:52 | 58.19076 | 13.23362 | 41105 ft | 516 kts | 60° |
| 2026-05-07 17:53 | 58.22557 | 13.35263 | 41104 ft | 516 kts | 60° |
| 2026-05-07 17:53 | 58.26032 | 13.47207 | 41106 ft | 516 kts | 60° |
| 2026-05-07 17:54 | 58.29496 | 13.59173 | 41104 ft | 516 kts | 60° |
| 2026-05-07 17:54 | 58.32951 | 13.71175 | 41109 ft | 517 kts | 60° |
| 2026-05-07 17:55 | 58.36393 | 13.83190 | 41111 ft | 517 kts | 60° |
| 2026-05-07 17:55 | 58.39800 | 13.95145 | 41107 ft | 517 kts | 60° |
| 2026-05-07 17:56 | 58.43235 | 14.07261 | 41106 ft | 518 kts | 60° |
| 2026-05-07 17:56 | 58.46661 | 14.19412 | 41105 ft | 518 kts | 60° |
| 2026-05-07 17:57 | 58.49492 | 14.29500 | 41102 ft | 518 kts | 60° |
| 2026-05-07 17:57 | 58.53443 | 14.43653 | 41104 ft | 518 kts | 61° |
| 2026-05-07 17:58 | 58.56833 | 14.55871 | 41104 ft | 518 kts | 61° |
| 2026-05-07 17:58 | 58.60190 | 14.68029 | 41104 ft | 519 kts | 61° |
| 2026-05-07 17:59 | 58.63557 | 14.80293 | 41101 ft | 519 kts | 61° |
| 2026-05-07 17:59 | 58.66906 | 14.92556 | 41102 ft | 519 kts | 61° |
| 2026-05-07 18:00 | 58.70256 | 15.04889 | 41102 ft | 519 kts | 61° |
| 2026-05-07 18:00 | 58.73592 | 15.17239 | 41099 ft | 520 kts | 61° |
| 2026-05-07 18:01 | 58.76900 | 15.29553 | 41097 ft | 521 kts | 62° |
| 2026-05-07 18:01 | 58.80227 | 15.42004 | 41098 ft | 521 kts | 62° |
| 2026-05-07 18:02 | 58.85191 | 15.60710 | 41102 ft | 522 kts | 62° |
| 2026-05-07 18:03 | 58.88466 | 15.73137 | 41101 ft | 522 kts | 62° |
| 2026-05-07 18:03 | 58.91755 | 15.85687 | 41107 ft | 523 kts | 62° |
| 2026-05-07 18:04 | 58.95040 | 15.98291 | 41111 ft | 523 kts | 62° |
| 2026-05-07 18:04 | 58.98289 | 16.10831 | 41110 ft | 523 kts | 62° |
| 2026-05-07 18:05 | 59.01536 | 16.23431 | 41111 ft | 523 kts | 62° |
| 2026-05-07 18:05 | 59.04790 | 16.36131 | 41113 ft | 524 kts | 62° |
| 2026-05-07 18:06 | 59.08035 | 16.48869 | 41118 ft | 528 kts | 62° |
| 2026-05-07 18:06 | 59.11304 | 16.61769 | 41118 ft | 535 kts | 63° |
| 2026-05-07 18:07 | 59.14593 | 16.74830 | 41121 ft | 538 kts | 63° |
| 2026-05-07 18:07 | 59.17880 | 16.87966 | 41122 ft | 539 kts | 63° |
| 2026-05-07 18:08 | 59.21133 | 17.01038 | 41121 ft | 539 kts | 63° |
| 2026-05-07 18:08 | 59.24403 | 17.14260 | 41122 ft | 539 kts | 63° |
| 2026-05-07 18:09 | 59.27658 | 17.27497 | 41125 ft | 540 kts | 63° |
| 2026-05-07 18:09 | 59.30897 | 17.40751 | 41126 ft | 540 kts | 63° |
| 2026-05-07 18:10 | 59.34120 | 17.54018 | 41128 ft | 539 kts | 63° |
| 2026-05-07 18:10 | 59.37309 | 17.67229 | 41131 ft | 539 kts | 63° |
| 2026-05-07 18:11 | 59.40504 | 17.80542 | 41130 ft | 539 kts | 64° |
| 2026-05-07 18:11 | 59.43693 | 17.93911 | 41129 ft | 540 kts | 64° |
| 2026-05-07 18:12 | 59.46844 | 18.07207 | 41131 ft | 540 kts | 64° |
| 2026-05-07 18:12 | 59.50009 | 18.20643 | 41131 ft | 541 kts | 64° |
| 2026-05-07 18:13 | 59.53167 | 18.34131 | 41136 ft | 541 kts | 64° |
| 2026-05-07 18:13 | 59.56309 | 18.47635 | 41140 ft | 541 kts | 64° |
| 2026-05-07 18:14 | 59.59434 | 18.61154 | 41148 ft | 541 kts | 64° |
| 2026-05-07 18:14 | 59.62526 | 18.74639 | 41148 ft | 542 kts | 65° |
| 2026-05-07 18:15 | 59.65432 | 18.88406 | 41153 ft | 542 kts | 68° |
| 2026-05-07 18:15 | 59.68104 | 19.02364 | 41155 ft | 542 kts | 69° |
| 2026-05-07 18:16 | 59.70765 | 19.16339 | 41156 ft | 542 kts | 68° |
| 2026-05-07 18:16 | 59.73450 | 19.30317 | 41158 ft | 542 kts | 68° |
| 2026-05-07 18:17 | 59.76121 | 19.44217 | 41162 ft | 542 kts | 68° |
| 2026-05-07 18:17 | 59.78784 | 19.58161 | 41158 ft | 535 kts | 68° |
| 2026-05-07 18:18 | 59.81396 | 19.71948 | 41154 ft | 531 kts | 69° |
| 2026-05-07 18:18 | 59.83980 | 19.85689 | 41160 ft | 530 kts | 69° |
| 2026-05-07 18:19 | 59.86534 | 19.99367 | 41159 ft | 530 kts | 69° |
| 2026-05-07 18:19 | 59.89091 | 20.13160 | 41156 ft | 530 kts | 69° |
| 2026-05-07 18:20 | 59.91630 | 20.26950 | 41157 ft | 531 kts | 69° |
| 2026-05-07 18:20 | 59.94161 | 20.40802 | 40972 ft | 531 kts | 69° |
| 2026-05-07 18:20 | 59.95422 | 20.47739 | 40733 ft | 531 kts | 69° |
| 2026-05-07 18:21 | 59.96678 | 20.54677 | 40500 ft | 531 kts | 69° |
| 2026-05-07 18:21 | 59.97917 | 20.61543 | 40132 ft | 532 kts | 69° |
| 2026-05-07 18:21 | 59.99176 | 20.68548 | 39683 ft | 533 kts | 69° |
| 2026-05-07 18:21 | 60.00426 | 20.75523 | 39235 ft | 533 kts | 69° |
| 2026-05-07 18:22 | 60.01680 | 20.82551 | 38656 ft | 535 kts | 69° |
| 2026-05-07 18:22 | 60.02504 | 20.87191 | 38188 ft | 535 kts | 69° |
| 2026-05-07 18:22 | 60.04155 | 20.96512 | 37263 ft | 536 kts | 69° |
| 2026-05-07 18:22 | 60.05398 | 21.03566 | 36609 ft | 537 kts | 69° |
| 2026-05-07 18:23 | 60.06640 | 21.10634 | 35965 ft | 538 kts | 69° |
| 2026-05-07 18:23 | 60.07878 | 21.17710 | 35343 ft | 539 kts | 69° |
| 2026-05-07 18:23 | 60.09116 | 21.24805 | 34734 ft | 540 kts | 68° |
| 2026-05-07 18:23 | 60.10354 | 21.31928 | 34121 ft | 541 kts | 68° |
| 2026-05-07 18:24 | 60.11588 | 21.39053 | 33412 ft | 542 kts | 68° |
| 2026-05-07 18:24 | 60.12828 | 21.46229 | 32716 ft | 543 kts | 68° |
| 2026-05-07 18:24 | 60.14044 | 21.53299 | 32046 ft | 545 kts | 68° |
| 2026-05-07 18:24 | 60.15273 | 21.60480 | 31379 ft | 537 kts | 68° |
| 2026-05-07 18:25 | 60.16454 | 21.67438 | 30713 ft | 514 kts | 68° |
| 2026-05-07 18:25 | 60.17582 | 21.74120 | 30057 ft | 495 kts | 68° |
| 2026-05-07 18:25 | 60.18669 | 21.80569 | 29291 ft | 479 kts | 68° |
| 2026-05-07 18:25 | 60.19740 | 21.86913 | 28573 ft | 481 kts | 68° |
| 2026-05-07 18:26 | 60.20816 | 21.93290 | 27869 ft | 483 kts | 68° |
| 2026-05-07 18:26 | 60.21896 | 21.99708 | 27187 ft | 484 kts | 69° |
| 2026-05-07 18:26 | 60.22970 | 22.06126 | 26560 ft | 483 kts | 69° |
| 2026-05-07 18:26 | 60.24034 | 22.12516 | 25955 ft | 483 kts | 69° |
| 2026-05-07 18:27 | 60.25098 | 22.18941 | 25337 ft | 482 kts | 69° |
| 2026-05-07 18:27 | 60.26142 | 22.25260 | 24775 ft | 480 kts | 69° |
| 2026-05-07 18:27 | 60.27194 | 22.31654 | 24201 ft | 479 kts | 69° |
| 2026-05-07 18:27 | 60.27886 | 22.35878 | 23822 ft | 478 kts | 69° |
| 2026-05-07 18:28 | 60.29272 | 22.44364 | 22944 ft | 475 kts | 69° |
| 2026-05-07 18:28 | 60.30297 | 22.50673 | 22270 ft | 466 kts | 69° |
| 2026-05-07 18:28 | 60.31274 | 22.56731 | 21619 ft | 443 kts | 69° |
| 2026-05-07 18:28 | 60.32193 | 22.62540 | 20962 ft | 425 kts | 71° |
| 2026-05-07 18:29 | 60.32857 | 22.68262 | 20375 ft | 416 kts | 76° |
| 2026-05-07 18:29 | 60.33433 | 22.73948 | 19753 ft | 411 kts | 77° |
| 2026-05-07 18:29 | 60.33988 | 22.79601 | 19160 ft | 412 kts | 77° |
| 2026-05-07 18:29 | 60.34539 | 22.85306 | 18638 ft | 412 kts | 77° |
| 2026-05-07 18:30 | 60.35073 | 22.90914 | 18099 ft | 411 kts | 77° |
| 2026-05-07 18:30 | 60.35607 | 22.96580 | 17547 ft | 408 kts | 77° |
| 2026-05-07 18:30 | 60.36134 | 23.02197 | 17007 ft | 406 kts | 77° |
| 2026-05-07 18:30 | 60.36654 | 23.07782 | 16472 ft | 403 kts | 77° |
| 2026-05-07 18:31 | 60.37160 | 23.13254 | 15939 ft | 387 kts | 77° |
| 2026-05-07 18:31 | 60.37643 | 23.18516 | 15414 ft | 375 kts | 77° |
| 2026-05-07 18:31 | 60.37956 | 23.21925 | 15090 ft | 376 kts | 77° |
| 2026-05-07 18:31 | 60.38435 | 23.27145 | 14585 ft | 376 kts | 77° |
| 2026-05-07 18:32 | 60.38909 | 23.32334 | 14091 ft | 374 kts | 77° |
| 2026-05-07 18:32 | 60.39376 | 23.37487 | 13568 ft | 372 kts | 77° |
| 2026-05-07 18:32 | 60.39841 | 23.42641 | 13011 ft | 370 kts | 78° |
| 2026-05-07 18:32 | 60.40300 | 23.47737 | 12474 ft | 367 kts | 78° |
| 2026-05-07 18:33 | 60.40753 | 23.52802 | 11940 ft | 364 kts | 78° |
| 2026-05-07 18:33 | 60.41200 | 23.57816 | 11404 ft | 360 kts | 78° |
| 2026-05-07 18:33 | 60.41632 | 23.62693 | 10920 ft | 356 kts | 78° |
| 2026-05-07 18:33 | 60.42065 | 23.67615 | 10420 ft | 352 kts | 78° |
| 2026-05-07 18:34 | 60.42488 | 23.72427 | 10149 ft | 340 kts | 78° |
| 2026-05-07 18:34 | 60.42889 | 23.77034 | 10097 ft | 322 kts | 78° |
| 2026-05-07 18:34 | 60.43266 | 23.81384 | 10100 ft | 304 kts | 79° |
| 2026-05-07 18:34 | 60.43625 | 23.85519 | 10104 ft | 295 kts | 79° |
| 2026-05-07 18:35 | 60.43975 | 23.89613 | 10105 ft | 295 kts | 79° |
| 2026-05-07 18:35 | 60.44231 | 23.93676 | 10104 ft | 295 kts | 83° |
| 2026-05-07 18:35 | 60.44446 | 23.97815 | 10103 ft | 294 kts | 83° |
| 2026-05-07 18:35 | 60.44659 | 24.01832 | 10090 ft | 278 kts | 83° |
| 2026-05-07 18:36 | 60.44876 | 24.05776 | 10012 ft | 290 kts | 82° |
| 2026-05-07 18:36 | 60.45107 | 24.09897 | 9640 ft | 295 kts | 82° |
| 2026-05-07 18:36 | 60.45339 | 24.14023 | 9203 ft | 293 kts | 83° |
| 2026-05-07 18:36 | 60.45569 | 24.18134 | 8757 ft | 293 kts | 82° |
| 2026-05-07 18:37 | 60.45798 | 24.22215 | 8310 ft | 292 kts | 82° |
| 2026-05-07 18:37 | 60.46027 | 24.26296 | 7863 ft | 291 kts | 82° |
| 2026-05-07 18:37 | 60.46248 | 24.30268 | 7406 ft | 276 kts | 82° |
| 2026-05-07 18:37 | 60.46457 | 24.34069 | 6960 ft | 268 kts | 82° |
| 2026-05-07 18:38 | 60.46484 | 24.34564 | 6905 ft | 268 kts | 82° |
| 2026-05-07 18:38 | 60.46690 | 24.38311 | 6469 ft | 265 kts | 82° |
| 2026-05-07 18:38 | 60.46893 | 24.42014 | 6019 ft | 263 kts | 82° |
| 2026-05-07 18:39 | 60.47094 | 24.45705 | 5591 ft | 264 kts | 82° |
| 2026-05-07 18:39 | 60.47303 | 24.49403 | 5208 ft | 264 kts | 81° |
| 2026-05-07 18:39 | 60.47389 | 24.53115 | 4809 ft | 266 kts | 91° |
| 2026-05-07 18:39 | 60.47234 | 24.56870 | 4418 ft | 268 kts | 94° |
| 2026-05-07 18:40 | 60.47026 | 24.60633 | 4024 ft | 268 kts | 94° |
| 2026-05-07 18:40 | 60.46812 | 24.64316 | 3632 ft | 256 kts | 94° |
| 2026-05-07 18:40 | 60.46601 | 24.67818 | 3221 ft | 242 kts | 94° |
| 2026-05-07 18:40 | 60.46403 | 24.71099 | 2824 ft | 232 kts | 94° |
| 2026-05-07 18:41 | 60.46209 | 24.74264 | 2424 ft | 222 kts | 94° |
| 2026-05-07 18:41 | 60.46021 | 24.77324 | 2075 ft | 212 kts | 94° |
| 2026-05-07 18:41 | 60.45837 | 24.80257 | 2021 ft | 210 kts | 95° |
| 2026-05-07 18:41 | 60.45325 | 24.83006 | 2017 ft | 214 kts | 126° |
| 2026-05-07 18:42 | 60.44309 | 24.85107 | 1983 ft | 201 kts | 145° |
| 2026-05-07 18:42 | 60.43101 | 24.86219 | 1981 ft | 183 kts | 161° |
| 2026-05-07 18:42 | 60.41963 | 24.87161 | 1985 ft | 173 kts | 155° |
| 2026-05-07 18:42 | 60.40909 | 24.88333 | 1940 ft | 172 kts | 149° |
| 2026-05-07 18:43 | 60.39858 | 24.89443 | 1737 ft | 169 kts | 155° |
| 2026-05-07 18:43 | 60.38830 | 24.90476 | 1487 ft | 162 kts | 154° |
| 2026-05-07 18:43 | 60.37859 | 24.91484 | 1284 ft | 151 kts | 154° |
| 2026-05-07 18:43 | 60.36949 | 24.92423 | 1059 ft | 142 kts | 155° |
| 2026-05-07 18:44 | 60.36092 | 24.93312 | 874 ft | 136 kts | 154° |
| 2026-05-07 18:44 | 60.35260 | 24.94193 | 686 ft | 134 kts | 154° |
| 2026-05-07 18:44 | 60.34435 | 24.95034 | 523 ft | 132 kts | 154° |
| 2026-05-07 18:44 | 60.33622 | 24.95864 | 356 ft | 130 kts | 154° |
| 2026-05-07 18:45 | 60.32817 | 24.96681 | 204 ft | 129 kts | 155° |
| 2026-05-07 18:45 | 60.32081 | 24.97419 | 162 ft | 101 kts | 153° |
| 2026-05-07 18:45 | 60.31553 | 24.97963 | 161 ft | 60 kts | 153° |
| 2026-05-07 18:45 | 60.31248 | 24.98274 | 163 ft | 46 kts | 153° |
| 2026-05-07 18:46 | 60.31064 | 24.98456 | 162 ft | 10 kts | 165° |
| 2026-05-07 18:46 | 60.30991 | 24.98378 | 163 ft | 17 kts | 239° |
| 2026-05-07 18:46 | 60.30979 | 24.98333 | 164 ft | 0 kts | 243° |
| 2026-05-07 18:47 | 60.30970 | 24.98261 | 167 ft | 11 kts | 274° |
| 2026-05-07 18:48 | 60.31040 | 24.98156 | 168 ft | 17 kts | 336° |
| 2026-05-07 18:48 | 60.31157 | 24.98049 | 168 ft | 20 kts | 335° |
| 2026-05-07 18:48 | 60.31286 | 24.97907 | 168 ft | 22 kts | 331° |
| 2026-05-07 18:48 | 60.31429 | 24.97754 | 167 ft | 23 kts | 332° |
| 2026-05-07 18:49 | 60.31560 | 24.97617 | 168 ft | 21 kts | 332° |
| 2026-05-07 18:49 | 60.31700 | 24.97471 | 167 ft | 24 kts | 332° |
| 2026-05-07 18:49 | 60.31844 | 24.97324 | 168 ft | 21 kts | 333° |
| 2026-05-07 18:49 | 60.31983 | 24.97184 | 168 ft | 24 kts | 333° |
| 2026-05-07 18:50 | 60.32136 | 24.97025 | 168 ft | 26 kts | 333° |
| 2026-05-07 18:50 | 60.32267 | 24.96889 | 170 ft | 17 kts | 333° |
| 2026-05-07 18:50 | 60.32296 | 24.96773 | 172 ft | 9 kts | 244° |
| 2026-05-07 18:50 | 60.32246 | 24.96662 | 173 ft | 14 kts | 227° |
| 2026-05-07 18:51 | 60.32170 | 24.96493 | 174 ft | 18 kts | 227° |
| 2026-05-07 18:51 | 60.32079 | 24.96291 | 173 ft | 21 kts | 227° |
| 2026-05-07 18:51 | 60.31989 | 24.96090 | 176 ft | 17 kts | 228° |
| 2026-05-07 18:51 | 60.31902 | 24.96073 | 173 ft | 16 kts | 138° |
| 2026-05-07 18:52 | 60.31829 | 24.96171 | 170 ft | 8 kts | 139° |
| 2026-05-07 18:52 | 60.31801 | 24.96226 | 169 ft | 4 kts | 137° |
| 2026-05-07 18:52 | 60.31785 | 24.96254 | 169 ft | 1 kts | 138° |
| 2026-05-07 18:52 | 60.31784 | 24.96257 | 169 ft | 0 kts | 138° |